createdAt,value
2017-09-02T00:00:02.245Z,96.40
2017-09-02T00:00:06.491Z,96.40
2017-09-02T00:00:10.736Z,96.40
2017-09-02T00:00:14.976Z,96.40
2017-09-02T00:00:19.228Z,96.40
2017-09-02T00:00:29.168Z,96.40
2017-09-02T00:00:33.411Z,96.40
2017-09-02T00:00:37.672Z,96.40
2017-09-02T00:00:41.908Z,96.40
2017-09-02T00:00:46.166Z,96.40
2017-09-02T00:00:50.422Z,96.40
2017-09-02T00:00:54.667Z,96.40
2017-09-02T00:00:58.909Z,96.40
2017-09-02T00:01:03.177Z,96.40
2017-09-02T00:01:07.414Z,96.40
2017-09-02T00:01:11.685Z,96.40
2017-09-02T00:01:15.953Z,96.40
2017-09-02T00:01:20.210Z,96.40
2017-09-02T00:01:24.466Z,96.40
2017-09-02T00:01:28.733Z,96.40
2017-09-02T00:01:32.986Z,96.40
2017-09-02T00:01:37.234Z,96.40
2017-09-02T00:01:41.477Z,96.40
2017-09-02T00:01:45.719Z,96.60
2017-09-02T00:01:49.965Z,96.40
2017-09-02T00:01:54.236Z,96.40
2017-09-02T00:01:58.492Z,96.40
2017-09-02T00:02:02.730Z,96.50
2017-09-02T00:02:06.996Z,96.40
2017-09-02T00:02:11.252Z,96.30
2017-09-02T00:02:15.515Z,96.40
2017-09-02T00:02:19.774Z,96.40
2017-09-02T00:02:24.014Z,96.40
2017-09-02T00:02:28.272Z,96.40
2017-09-02T00:02:32.523Z,96.40
2017-09-02T00:02:36.793Z,96.40
2017-09-02T00:02:41.036Z,96.40
2017-09-02T00:02:45.305Z,96.50
2017-09-02T00:02:49.571Z,96.40
2017-09-02T00:02:53.883Z,96.40
2017-09-02T00:02:58.113Z,96.40
2017-09-02T00:03:02.419Z,96.40
2017-09-02T00:03:06.634Z,96.40
2017-09-02T00:03:10.896Z,96.40
2017-09-02T00:03:15.148Z,96.70
2017-09-02T00:03:19.382Z,96.40
2017-09-02T00:03:23.642Z,96.40
2017-09-02T00:03:27.880Z,96.40
2017-09-02T00:03:32.137Z,96.50
2017-09-02T00:03:36.375Z,96.40
2017-09-02T00:03:40.626Z,96.40
2017-09-02T00:03:44.862Z,96.40
2017-09-02T00:03:49.119Z,96.40
2017-09-02T00:03:53.376Z,96.40
2017-09-02T00:03:57.617Z,96.40
2017-09-02T00:04:01.876Z,96.40
2017-09-02T00:04:06.597Z,96.40
2017-09-02T00:04:10.838Z,96.40
2017-09-02T00:04:15.070Z,96.40
2017-09-02T00:04:19.324Z,96.40
2017-09-02T00:04:24.368Z,96.50
2017-09-02T00:04:28.607Z,96.50
2017-09-02T00:04:32.898Z,96.50
2017-09-02T00:04:37.111Z,96.50
2017-09-02T00:04:41.368Z,96.50
2017-09-02T00:04:45.619Z,96.50
2017-09-02T00:04:49.864Z,96.50
2017-09-02T00:04:54.122Z,96.50
2017-09-02T00:04:58.380Z,96.50
2017-09-02T00:05:03.418Z,96.50
2017-09-02T00:05:07.672Z,96.50
2017-09-02T00:05:11.898Z,96.50
2017-09-02T00:05:16.144Z,96.50
2017-09-02T00:05:20.393Z,96.50
2017-09-02T00:05:24.658Z,96.50
2017-09-02T00:05:28.918Z,96.50
2017-09-02T00:05:33.203Z,96.50
2017-09-02T00:05:37.435Z,96.50
2017-09-02T00:05:41.692Z,96.50
2017-09-02T00:05:45.938Z,96.50
2017-09-02T00:05:50.192Z,96.50
2017-09-02T00:05:54.427Z,96.50
2017-09-02T00:05:58.666Z,96.50
2017-09-02T00:06:02.914Z,96.40
2017-09-02T00:06:07.171Z,96.40
2017-09-02T00:06:11.416Z,96.40
2017-09-02T00:06:15.648Z,96.40
2017-09-02T00:06:19.907Z,96.40
2017-09-02T00:06:24.169Z,96.40
2017-09-02T00:06:28.419Z,96.40
2017-09-02T00:06:32.664Z,96.70
2017-09-02T00:06:36.901Z,96.40
2017-09-02T00:06:41.141Z,96.60
2017-09-02T00:06:45.390Z,96.40
2017-09-02T00:06:49.636Z,96.40
2017-09-02T00:06:53.899Z,96.40
2017-09-02T00:06:58.122Z,96.40
2017-09-02T00:07:02.379Z,96.40
2017-09-02T00:07:07.383Z,96.40
2017-09-02T00:07:11.636Z,96.40
2017-09-02T00:07:15.880Z,96.40
2017-09-02T00:07:20.122Z,96.40
2017-09-02T00:07:24.371Z,96.60
2017-09-02T00:07:28.620Z,96.40
2017-09-02T00:07:32.888Z,96.40
2017-09-02T00:07:37.120Z,96.40
2017-09-02T00:07:41.364Z,96.40
2017-09-02T00:07:45.610Z,96.40
2017-09-02T00:07:49.864Z,96.40
2017-09-02T00:07:54.121Z,96.40
2017-09-02T00:07:58.355Z,96.40
2017-09-02T00:08:02.594Z,96.40
2017-09-02T00:08:06.832Z,96.40
2017-09-02T00:08:11.082Z,96.40
2017-09-02T00:08:16.088Z,96.50
2017-09-02T00:08:20.318Z,96.40
2017-09-02T00:08:24.567Z,96.40
2017-09-02T00:08:28.813Z,96.50
2017-09-02T00:08:33.070Z,96.50
2017-09-02T00:08:37.325Z,96.50
2017-09-02T00:08:41.606Z,96.50
2017-09-02T00:08:45.821Z,96.50
2017-09-02T00:08:50.082Z,96.50
2017-09-02T00:08:54.332Z,96.50
2017-09-02T00:08:58.592Z,96.60
2017-09-02T00:09:02.854Z,96.40
2017-09-02T00:09:07.096Z,96.50
2017-09-02T00:09:11.329Z,96.50
2017-09-02T00:09:15.588Z,96.50
2017-09-02T00:09:20.598Z,96.70
2017-09-02T00:09:24.842Z,96.50
2017-09-02T00:09:29.086Z,96.50
2017-09-02T00:09:33.337Z,96.50
2017-09-02T00:09:37.584Z,96.50
2017-09-02T00:09:41.809Z,96.40
2017-09-02T00:09:46.065Z,96.50
2017-09-02T00:09:50.311Z,96.50
2017-09-02T00:09:54.551Z,96.50
2017-09-02T00:09:58.785Z,96.50
2017-09-02T00:10:03.023Z,96.50
2017-09-02T00:10:07.270Z,96.50
2017-09-02T00:10:11.528Z,96.50
2017-09-02T00:10:15.755Z,96.50
2017-09-02T00:10:19.999Z,96.50
2017-09-02T00:10:24.242Z,96.50
2017-09-02T00:10:28.497Z,96.50
2017-09-02T00:10:32.737Z,96.50
2017-09-02T00:10:36.966Z,96.70
2017-09-02T00:10:41.231Z,96.50
2017-09-02T00:10:45.462Z,96.50
2017-09-02T00:10:49.726Z,96.50
2017-09-02T00:10:53.971Z,96.50
2017-09-02T00:10:58.210Z,96.50
2017-09-02T00:11:02.442Z,96.50
2017-09-02T00:11:06.688Z,96.40
2017-09-02T00:11:10.932Z,96.50
2017-09-02T00:11:15.170Z,96.80
2017-09-02T00:11:19.410Z,96.50
2017-09-02T00:11:23.660Z,96.50
2017-09-02T00:11:27.932Z,96.50
2017-09-02T00:11:32.167Z,96.50
2017-09-02T00:11:36.423Z,96.50
2017-09-02T00:11:40.656Z,96.40
2017-09-02T00:11:44.916Z,96.40
2017-09-02T00:11:49.162Z,96.50
2017-09-02T00:11:53.409Z,96.40
2017-09-02T00:11:57.664Z,96.40
2017-09-02T00:12:01.906Z,96.40
2017-09-02T00:12:06.164Z,96.40
2017-09-02T00:12:10.411Z,96.40
2017-09-02T00:12:14.680Z,96.40
2017-09-02T00:12:18.926Z,96.40
2017-09-02T00:12:23.157Z,96.40
2017-09-02T00:12:27.406Z,96.40
2017-09-02T00:12:31.639Z,96.40
2017-09-02T00:12:35.888Z,96.40
2017-09-02T00:12:40.136Z,96.40
2017-09-02T00:12:44.380Z,96.40
2017-09-02T00:12:48.679Z,96.30
2017-09-02T00:12:52.918Z,96.40
2017-09-02T00:12:57.183Z,96.40
2017-09-02T00:13:01.419Z,96.30
2017-09-02T00:13:05.651Z,96.30
2017-09-02T00:13:09.905Z,96.30
2017-09-02T00:13:14.136Z,96.30
2017-09-02T00:13:18.428Z,96.30
2017-09-02T00:13:22.687Z,96.30
2017-09-02T00:13:26.945Z,96.30
2017-09-02T00:13:31.186Z,96.30
2017-09-02T00:13:35.414Z,96.30
2017-09-02T00:13:39.684Z,96.30
2017-09-02T00:13:43.924Z,96.30
2017-09-02T00:13:48.209Z,96.30
2017-09-02T00:13:52.460Z,96.30
2017-09-02T00:13:56.696Z,96.30
2017-09-02T00:14:00.961Z,96.30
2017-09-02T00:14:05.209Z,96.30
2017-09-02T00:14:09.472Z,96.30
2017-09-02T00:14:13.698Z,96.30
2017-09-02T00:14:17.930Z,96.30
2017-09-02T00:14:22.165Z,96.30
2017-09-02T00:14:26.413Z,96.60
2017-09-02T00:14:30.673Z,96.60
2017-09-02T00:14:34.915Z,96.40
2017-09-02T00:14:39.158Z,96.60
2017-09-02T00:14:43.415Z,96.30
2017-09-02T00:14:47.646Z,96.30
2017-09-02T00:14:51.882Z,96.40
2017-09-02T00:14:56.137Z,96.40
2017-09-02T00:15:00.385Z,96.40
2017-09-02T00:15:04.630Z,96.40
2017-09-02T00:15:08.868Z,96.40
2017-09-02T00:15:13.116Z,96.40
2017-09-02T00:15:17.368Z,96.40
2017-09-02T00:15:21.635Z,96.40
2017-09-02T00:15:25.864Z,96.20
2017-09-02T00:15:30.131Z,96.40
2017-09-02T00:15:34.381Z,96.40
2017-09-02T00:15:38.615Z,96.40
2017-09-02T00:15:42.864Z,96.40
2017-09-02T00:15:47.143Z,96.40
2017-09-02T00:15:51.375Z,96.40
2017-09-02T00:15:55.620Z,96.40
2017-09-02T00:15:59.879Z,96.30
2017-09-02T00:16:04.137Z,96.40
2017-09-02T00:16:08.366Z,96.40
2017-09-02T00:16:13.377Z,96.40
2017-09-02T00:16:17.624Z,96.60
2017-09-02T00:16:21.872Z,96.40
2017-09-02T00:16:26.124Z,96.40
2017-09-02T00:16:30.387Z,96.40
2017-09-02T00:16:34.629Z,96.40
2017-09-02T00:16:38.883Z,96.40
2017-09-02T00:16:43.140Z,96.40
2017-09-02T00:16:47.400Z,96.40
2017-09-02T00:16:51.652Z,96.40
2017-09-02T00:16:55.911Z,96.40
2017-09-02T00:17:00.164Z,96.40
2017-09-02T00:17:04.428Z,96.40
2017-09-02T00:17:08.691Z,96.40
2017-09-02T00:17:12.953Z,96.40
2017-09-02T00:17:17.186Z,96.30
2017-09-02T00:17:21.437Z,96.40
2017-09-02T00:17:25.711Z,96.30
2017-09-02T00:17:29.970Z,96.40
2017-09-02T00:17:34.218Z,96.40
2017-09-02T00:17:38.474Z,96.60
2017-09-02T00:17:43.506Z,96.40
2017-09-02T00:17:47.782Z,96.40
2017-09-02T00:17:52.029Z,96.70
2017-09-02T00:17:56.271Z,96.40
2017-09-02T00:18:00.527Z,96.40
2017-09-02T00:18:04.780Z,96.40
2017-09-02T00:18:09.032Z,96.40
2017-09-02T00:18:13.281Z,96.40
2017-09-02T00:18:17.545Z,96.40
2017-09-02T00:18:21.786Z,96.70
2017-09-02T00:18:26.076Z,96.40
2017-09-02T00:18:30.301Z,96.40
2017-09-02T00:18:34.546Z,96.40
2017-09-02T00:18:38.793Z,96.40
2017-09-02T00:18:43.026Z,96.40
2017-09-02T00:18:47.295Z,96.40
2017-09-02T00:18:52.307Z,96.50
2017-09-02T00:18:57.320Z,96.40
2017-09-02T00:19:01.584Z,96.40
2017-09-02T00:19:05.832Z,96.40
2017-09-02T00:19:10.080Z,96.40
2017-09-02T00:19:14.326Z,96.50
2017-09-02T00:19:18.569Z,96.50
2017-09-02T00:19:22.809Z,96.50
2017-09-02T00:19:27.050Z,96.50
2017-09-02T00:19:31.340Z,96.50
2017-09-02T00:19:35.589Z,96.50
2017-09-02T00:19:39.842Z,96.50
2017-09-02T00:19:44.099Z,96.30
2017-09-02T00:19:48.378Z,96.50
2017-09-02T00:19:52.637Z,96.50
2017-09-02T00:19:56.894Z,96.50
2017-09-02T00:20:01.156Z,96.50
2017-09-02T00:20:05.398Z,96.50
2017-09-02T00:20:09.654Z,96.50
2017-09-02T00:20:13.916Z,96.50
2017-09-02T00:20:18.170Z,96.50
2017-09-02T00:20:22.409Z,96.40
2017-09-02T00:20:26.668Z,96.50
2017-09-02T00:20:30.910Z,96.50
2017-09-02T00:20:35.179Z,96.50
2017-09-02T00:20:39.428Z,96.50
2017-09-02T00:20:43.671Z,96.50
2017-09-02T00:20:47.919Z,96.50
2017-09-02T00:20:52.159Z,96.50
2017-09-02T00:20:56.412Z,96.60
2017-09-02T00:21:00.650Z,96.60
2017-09-02T00:21:04.902Z,96.70
2017-09-02T00:21:09.156Z,96.60
2017-09-02T00:21:13.398Z,96.60
2017-09-02T00:21:17.656Z,96.60
2017-09-02T00:21:21.908Z,96.60
2017-09-02T00:21:26.182Z,96.60
2017-09-02T00:21:30.451Z,96.60
2017-09-02T00:21:34.707Z,96.60
2017-09-02T00:21:38.961Z,96.60
2017-09-02T00:21:43.233Z,96.60
2017-09-02T00:21:48.262Z,96.60
2017-09-02T00:21:52.512Z,96.60
2017-09-02T00:21:56.770Z,96.60
2017-09-02T00:22:01.032Z,96.60
2017-09-02T00:22:05.278Z,96.60
2017-09-02T00:22:09.532Z,96.60
2017-09-02T00:22:13.794Z,96.60
2017-09-02T00:22:18.048Z,96.60
2017-09-02T00:22:22.287Z,96.60
2017-09-02T00:22:26.548Z,96.60
2017-09-02T00:22:30.808Z,96.70
2017-09-02T00:22:35.048Z,96.60
2017-09-02T00:22:39.282Z,96.70
2017-09-02T00:22:43.557Z,96.70
2017-09-02T00:22:47.825Z,96.60
2017-09-02T00:22:52.050Z,96.70
2017-09-02T00:22:56.304Z,96.70
2017-09-02T00:23:00.554Z,96.70
2017-09-02T00:23:04.797Z,96.70
2017-09-02T00:23:09.048Z,96.70
2017-09-02T00:23:13.286Z,96.70
2017-09-02T00:23:17.559Z,96.70
2017-09-02T00:23:21.846Z,96.70
2017-09-02T00:23:26.092Z,96.70
2017-09-02T00:23:30.333Z,96.70
2017-09-02T00:23:34.594Z,96.70
2017-09-02T00:23:38.841Z,96.80
2017-09-02T00:23:43.078Z,96.80
2017-09-02T00:23:47.342Z,96.80
2017-09-02T00:23:51.594Z,96.80
2017-09-02T00:23:55.835Z,96.80
2017-09-02T00:24:00.075Z,96.80
2017-09-02T00:24:04.317Z,96.80
2017-09-02T00:24:08.570Z,96.80
2017-09-02T00:24:12.820Z,96.80
2017-09-02T00:24:17.061Z,96.80
2017-09-02T00:24:21.306Z,96.80
2017-09-02T00:24:25.555Z,96.80
2017-09-02T00:24:29.795Z,96.90
2017-09-02T00:24:34.053Z,96.90
2017-09-02T00:24:38.306Z,96.80
2017-09-02T00:24:42.631Z,96.90
2017-09-02T00:24:46.866Z,96.90
2017-09-02T00:24:51.141Z,96.90
2017-09-02T00:24:55.366Z,96.90
2017-09-02T00:24:59.624Z,96.90
2017-09-02T00:25:03.891Z,96.90
2017-09-02T00:25:08.131Z,96.90
2017-09-02T00:25:13.161Z,96.90
2017-09-02T00:25:17.410Z,96.90
2017-09-02T00:25:21.648Z,96.90
2017-09-02T00:25:26.672Z,96.90
2017-09-02T00:25:30.910Z,96.90
2017-09-02T00:25:35.169Z,96.90
2017-09-02T00:25:39.414Z,96.90
2017-09-02T00:25:43.653Z,96.90
2017-09-02T00:25:48.673Z,97.00
2017-09-02T00:25:52.942Z,96.90
2017-09-02T00:25:57.177Z,97.00
2017-09-02T00:26:01.432Z,96.90
2017-09-02T00:26:05.666Z,96.90
2017-09-02T00:26:10.669Z,96.90
2017-09-02T00:26:14.956Z,97.00
2017-09-02T00:26:20.035Z,96.90
2017-09-02T00:26:24.255Z,96.90
2017-09-02T00:26:28.504Z,97.00
2017-09-02T00:26:32.836Z,96.90
2017-09-02T00:26:37.823Z,97.00
2017-09-02T00:26:42.066Z,97.00
2017-09-02T00:26:46.320Z,97.00
2017-09-02T00:26:51.322Z,97.00
2017-09-02T00:26:55.582Z,97.00
2017-09-02T00:26:59.852Z,97.00
2017-09-02T00:27:04.119Z,96.90
2017-09-02T00:27:08.362Z,97.00
2017-09-02T00:27:12.599Z,97.00
2017-09-02T00:27:16.840Z,96.90
2017-09-02T00:27:21.069Z,96.90
2017-09-02T00:27:25.328Z,97.00
2017-09-02T00:27:29.574Z,96.90
2017-09-02T00:27:33.835Z,97.00
2017-09-02T00:27:38.069Z,97.00
2017-09-02T00:27:42.314Z,97.00
2017-09-02T00:27:46.573Z,96.90
2017-09-02T00:27:50.798Z,96.90
2017-09-02T00:27:55.073Z,97.00
2017-09-02T00:27:59.348Z,96.90
2017-09-02T00:28:03.601Z,96.90
2017-09-02T00:28:07.834Z,96.90
2017-09-02T00:28:12.075Z,96.90
2017-09-02T00:28:16.336Z,96.90
2017-09-02T00:28:21.338Z,96.90
2017-09-02T00:28:25.583Z,96.90
2017-09-02T00:28:29.816Z,96.90
2017-09-02T00:28:34.092Z,96.90
2017-09-02T00:28:38.326Z,96.90
2017-09-02T00:28:42.585Z,96.90
2017-09-02T00:28:46.836Z,96.90
2017-09-02T00:28:51.098Z,97.00
2017-09-02T00:28:55.347Z,97.20
2017-09-02T00:28:59.589Z,97.00
2017-09-02T00:29:03.948Z,97.10
2017-09-02T00:29:08.196Z,97.10
2017-09-02T00:29:12.450Z,97.10
2017-09-02T00:29:16.704Z,97.10
2017-09-02T00:29:20.937Z,97.20
2017-09-02T00:29:25.191Z,97.30
2017-09-02T00:29:29.448Z,97.30
2017-09-02T00:29:34.455Z,97.40
2017-09-02T00:29:38.698Z,97.40
2017-09-02T00:29:42.956Z,97.40
2017-09-02T00:29:47.202Z,97.50
2017-09-02T00:29:51.445Z,97.50
2017-09-02T00:29:55.708Z,97.50
2017-09-02T00:29:59.959Z,97.50
2017-09-02T00:30:04.224Z,97.50
2017-09-02T00:30:08.496Z,97.60
2017-09-02T00:30:12.751Z,97.60
2017-09-02T00:30:16.997Z,97.60
2017-09-02T00:30:21.248Z,97.60
2017-09-02T00:30:25.497Z,97.60
2017-09-02T00:30:29.728Z,97.50
2017-09-02T00:30:33.984Z,97.60
2017-09-02T00:30:38.218Z,97.60
2017-09-02T00:30:42.475Z,97.70
2017-09-02T00:30:46.725Z,97.60
2017-09-02T00:30:51.042Z,97.60
2017-09-02T00:30:55.254Z,97.60
2017-09-02T00:30:59.516Z,97.50
2017-09-02T00:31:03.750Z,97.50
2017-09-02T00:31:08.016Z,97.40
2017-09-02T00:31:12.272Z,97.30
2017-09-02T00:31:16.524Z,97.30
2017-09-02T00:31:20.779Z,97.30
2017-09-02T00:31:25.031Z,97.30
2017-09-02T00:31:29.267Z,97.30
2017-09-02T00:31:33.560Z,97.30
2017-09-02T00:31:37.808Z,97.30
2017-09-02T00:31:42.060Z,97.60
2017-09-02T00:31:46.317Z,97.30
2017-09-02T00:31:50.595Z,97.30
2017-09-02T00:31:54.845Z,97.30
2017-09-02T00:31:59.101Z,97.30
2017-09-02T00:32:03.345Z,97.40
2017-09-02T00:32:08.362Z,97.40
2017-09-02T00:32:12.625Z,97.40
2017-09-02T00:32:16.889Z,97.50
2017-09-02T00:32:21.144Z,97.40
2017-09-02T00:32:25.436Z,97.40
2017-09-02T00:32:29.690Z,97.50
2017-09-02T00:32:33.955Z,97.50
2017-09-02T00:32:38.186Z,97.60
2017-09-02T00:32:42.437Z,97.50
2017-09-02T00:32:46.695Z,97.50
2017-09-02T00:32:50.930Z,97.60
2017-09-02T00:32:55.189Z,97.60
2017-09-02T00:32:59.435Z,97.60
2017-09-02T00:33:03.696Z,97.60
2017-09-02T00:33:07.952Z,97.60
2017-09-02T00:33:12.182Z,97.60
2017-09-02T00:33:16.434Z,97.70
2017-09-02T00:33:20.689Z,97.70
2017-09-02T00:33:24.926Z,97.70
2017-09-02T00:33:29.191Z,97.70
2017-09-02T00:33:33.464Z,97.70
2017-09-02T00:33:37.732Z,97.70
2017-09-02T00:33:41.968Z,98.00
2017-09-02T00:33:46.249Z,97.70
2017-09-02T00:33:50.509Z,97.70
2017-09-02T00:33:54.772Z,97.70
2017-09-02T00:33:59.774Z,97.80
2017-09-02T00:34:04.027Z,97.80
2017-09-02T00:34:08.278Z,97.80
2017-09-02T00:34:12.526Z,97.80
2017-09-02T00:34:16.792Z,97.80
2017-09-02T00:34:21.023Z,97.70
2017-09-02T00:34:25.296Z,97.80
2017-09-02T00:34:29.549Z,97.80
2017-09-02T00:34:33.782Z,97.80
2017-09-02T00:34:38.048Z,97.80
2017-09-02T00:34:42.297Z,97.80
2017-09-02T00:34:46.552Z,97.80
2017-09-02T00:34:50.778Z,97.80
2017-09-02T00:34:55.036Z,97.80
2017-09-02T00:34:59.289Z,97.80
2017-09-02T00:35:03.539Z,97.80
2017-09-02T00:35:07.796Z,97.80
2017-09-02T00:35:12.038Z,97.80
2017-09-02T00:35:16.302Z,97.80
2017-09-02T00:35:20.541Z,97.80
2017-09-02T00:35:24.812Z,97.60
2017-09-02T00:35:29.078Z,97.80
2017-09-02T00:35:33.310Z,97.80
2017-09-02T00:35:37.562Z,97.80
2017-09-02T00:35:41.813Z,98.00
2017-09-02T00:35:46.052Z,97.80
2017-09-02T00:35:50.304Z,97.80
2017-09-02T00:35:54.579Z,97.80
2017-09-02T00:35:58.878Z,97.80
2017-09-02T00:36:03.898Z,97.80
2017-09-02T00:36:08.152Z,97.80
2017-09-02T00:36:12.405Z,97.80
2017-09-02T00:36:16.657Z,97.80
2017-09-02T00:36:20.908Z,97.80
2017-09-02T00:36:25.161Z,97.80
2017-09-02T00:36:29.417Z,97.80
2017-09-02T00:36:33.725Z,97.80
2017-09-02T00:36:37.934Z,97.80
2017-09-02T00:36:42.197Z,97.80
2017-09-02T00:36:46.433Z,97.80
2017-09-02T00:36:50.748Z,97.80
2017-09-02T00:36:54.976Z,97.70
2017-09-02T00:36:59.229Z,97.80
2017-09-02T00:37:03.480Z,97.70
2017-09-02T00:37:07.740Z,97.80
2017-09-02T00:37:11.993Z,97.80
2017-09-02T00:37:16.244Z,97.80
2017-09-02T00:37:20.514Z,97.80
2017-09-02T00:37:24.764Z,97.70
2017-09-02T00:37:29.002Z,97.70
2017-09-02T00:37:33.289Z,97.70
2017-09-02T00:37:38.324Z,98.00
2017-09-02T00:37:42.582Z,97.80
2017-09-02T00:37:46.834Z,97.80
2017-09-02T00:37:51.096Z,97.80
2017-09-02T00:37:55.334Z,97.80
2017-09-02T00:37:59.584Z,97.80
2017-09-02T00:38:03.832Z,97.80
2017-09-02T00:38:08.086Z,97.70
2017-09-02T00:38:12.355Z,97.70
2017-09-02T00:38:16.604Z,97.70
2017-09-02T00:38:21.620Z,97.70
2017-09-02T00:38:25.880Z,97.70
2017-09-02T00:38:30.122Z,97.70
2017-09-02T00:38:34.391Z,97.70
2017-09-02T00:38:38.640Z,97.70
2017-09-02T00:38:42.871Z,97.70
2017-09-02T00:38:47.149Z,97.70
2017-09-02T00:38:51.384Z,97.70
2017-09-02T00:38:55.643Z,97.70
2017-09-02T00:38:59.884Z,97.70
2017-09-02T00:39:04.148Z,97.70
2017-09-02T00:39:08.404Z,97.70
2017-09-02T00:39:12.645Z,97.70
2017-09-02T00:39:16.897Z,97.70
2017-09-02T00:39:21.139Z,97.60
2017-09-02T00:39:25.382Z,97.60
2017-09-02T00:39:29.630Z,97.60
2017-09-02T00:39:33.863Z,97.60
2017-09-02T00:39:38.118Z,97.70
2017-09-02T00:39:42.376Z,97.70
2017-09-02T00:39:46.649Z,97.70
2017-09-02T00:39:50.894Z,97.70
2017-09-02T00:39:55.126Z,97.70
2017-09-02T00:39:59.391Z,97.70
2017-09-02T00:40:03.627Z,97.70
2017-09-02T00:40:07.878Z,97.70
2017-09-02T00:40:12.143Z,97.70
2017-09-02T00:40:16.395Z,97.80
2017-09-02T00:40:20.661Z,97.80
2017-09-02T00:40:24.909Z,97.80
2017-09-02T00:40:29.948Z,97.80
2017-09-02T00:40:34.186Z,97.80
2017-09-02T00:40:38.440Z,97.80
2017-09-02T00:40:42.701Z,97.80
2017-09-02T00:40:46.964Z,97.80
2017-09-02T00:40:51.218Z,97.80
2017-09-02T00:40:55.479Z,97.80
2017-09-02T00:40:59.748Z,97.80
2017-09-02T00:41:04.001Z,97.80
2017-09-02T00:41:08.243Z,97.80
2017-09-02T00:41:12.491Z,97.80
2017-09-02T00:41:16.752Z,97.80
2017-09-02T00:41:21.013Z,97.80
2017-09-02T00:41:25.264Z,97.80
2017-09-02T00:41:29.542Z,97.80
2017-09-02T00:41:33.813Z,97.80
2017-09-02T00:41:38.055Z,97.80
2017-09-02T00:41:42.312Z,97.80
2017-09-02T00:41:46.579Z,97.80
2017-09-02T00:41:50.817Z,97.80
2017-09-02T00:41:55.066Z,97.80
2017-09-02T00:41:59.310Z,97.80
2017-09-02T00:42:03.579Z,97.80
2017-09-02T00:42:07.824Z,97.80
2017-09-02T00:42:12.829Z,97.80
2017-09-02T00:42:17.111Z,97.80
2017-09-02T00:42:21.396Z,97.90
2017-09-02T00:42:25.697Z,97.80
2017-09-02T00:42:29.929Z,97.80
2017-09-02T00:42:34.222Z,97.80
2017-09-02T00:42:38.468Z,97.70
2017-09-02T00:42:42.724Z,97.80
2017-09-02T00:42:46.975Z,97.80
2017-09-02T00:42:51.254Z,97.80
2017-09-02T00:42:55.515Z,97.80
2017-09-02T00:42:59.777Z,97.80
2017-09-02T00:43:04.028Z,97.80
2017-09-02T00:43:08.315Z,97.80
2017-09-02T00:43:12.586Z,98.10
2017-09-02T00:43:16.829Z,97.80
2017-09-02T00:43:21.090Z,97.80
2017-09-02T00:43:25.354Z,97.90
2017-09-02T00:43:30.382Z,97.90
2017-09-02T00:43:34.631Z,97.90
2017-09-02T00:43:38.881Z,97.90
2017-09-02T00:43:43.142Z,97.90
2017-09-02T00:43:47.410Z,97.90
2017-09-02T00:43:51.650Z,98.00
2017-09-02T00:43:55.905Z,98.00
2017-09-02T00:44:00.163Z,98.20
2017-09-02T00:44:04.481Z,98.00
2017-09-02T00:44:08.749Z,98.00
2017-09-02T00:44:13.004Z,98.00
2017-09-02T00:44:17.273Z,98.00
2017-09-02T00:44:21.523Z,98.00
2017-09-02T00:44:25.774Z,98.00
2017-09-02T00:44:30.049Z,98.00
2017-09-02T00:44:34.304Z,98.10
2017-09-02T00:44:38.546Z,98.30
2017-09-02T00:44:42.793Z,98.10
2017-09-02T00:44:47.071Z,98.10
2017-09-02T00:44:51.314Z,98.10
2017-09-02T00:44:55.558Z,98.10
2017-09-02T00:44:59.823Z,98.10
2017-09-02T00:45:04.084Z,98.40
2017-09-02T00:45:08.327Z,98.10
2017-09-02T00:45:12.576Z,98.10
2017-09-02T00:45:16.845Z,98.10
2017-09-02T00:45:21.895Z,98.20
2017-09-02T00:45:26.894Z,98.20
2017-09-02T00:45:31.161Z,98.20
2017-09-02T00:45:35.415Z,98.20
2017-09-02T00:45:39.664Z,98.20
2017-09-02T00:45:43.925Z,98.20
2017-09-02T00:45:48.184Z,98.20
2017-09-02T00:45:52.457Z,98.40
2017-09-02T00:45:56.723Z,98.20
2017-09-02T00:46:00.982Z,98.20
2017-09-02T00:46:05.251Z,98.20
2017-09-02T00:46:09.506Z,98.20
2017-09-02T00:46:13.779Z,98.20
2017-09-02T00:46:18.032Z,98.30
2017-09-02T00:46:22.295Z,98.50
2017-09-02T00:46:26.546Z,98.20
2017-09-02T00:46:30.804Z,98.20
2017-09-02T00:46:35.071Z,98.20
2017-09-02T00:46:39.324Z,98.30
2017-09-02T00:46:43.589Z,98.50
2017-09-02T00:46:47.848Z,98.30
2017-09-02T00:46:52.102Z,98.40
2017-09-02T00:46:56.373Z,98.30
2017-09-02T00:47:00.655Z,98.30
2017-09-02T00:47:04.903Z,98.60
2017-09-02T00:47:09.145Z,98.40
2017-09-02T00:47:13.404Z,98.40
2017-09-02T00:47:17.646Z,98.50
2017-09-02T00:47:21.926Z,98.50
2017-09-02T00:47:26.170Z,98.60
2017-09-02T00:47:30.473Z,98.60
2017-09-02T00:47:34.758Z,98.60
2017-09-02T00:47:39.004Z,98.60
2017-09-02T00:47:43.272Z,98.70
2017-09-02T00:47:47.527Z,98.70
2017-09-02T00:47:51.824Z,98.90
2017-09-02T00:47:56.071Z,98.90
2017-09-02T00:48:00.341Z,98.90
2017-09-02T00:48:04.617Z,98.90
2017-09-02T00:48:08.859Z,98.90
2017-09-02T00:48:13.124Z,99.20
2017-09-02T00:48:17.366Z,99.00
2017-09-02T00:48:21.628Z,99.10
2017-09-02T00:48:25.897Z,99.10
2017-09-02T00:48:30.160Z,99.20
2017-09-02T00:48:34.432Z,99.20
2017-09-02T00:48:38.998Z,99.20
2017-09-02T00:48:43.259Z,99.30
2017-09-02T00:48:47.510Z,99.30
2017-09-02T00:48:51.770Z,99.40
2017-09-02T00:48:56.026Z,99.30
2017-09-02T00:49:00.277Z,99.30
2017-09-02T00:49:04.542Z,99.30
2017-09-02T00:49:08.781Z,99.40
2017-09-02T00:49:13.051Z,99.40
2017-09-02T00:49:17.299Z,99.40
2017-09-02T00:49:21.561Z,99.40
2017-09-02T00:49:25.820Z,99.40
2017-09-02T00:49:30.084Z,99.40
2017-09-02T00:49:34.361Z,99.40
2017-09-02T00:49:38.603Z,99.50
2017-09-02T00:49:42.858Z,99.50
2017-09-02T00:49:47.106Z,99.50
2017-09-02T00:49:51.365Z,99.50
2017-09-02T00:49:55.602Z,99.50
2017-09-02T00:49:59.923Z,99.50
2017-09-02T00:50:04.184Z,99.60
2017-09-02T00:50:08.414Z,99.60
2017-09-02T00:50:12.673Z,99.60
2017-09-02T00:50:16.922Z,99.60
2017-09-02T00:50:21.180Z,99.60
2017-09-02T00:50:25.436Z,99.60
2017-09-02T00:50:29.686Z,99.60
2017-09-02T00:50:33.952Z,99.60
2017-09-02T00:50:38.215Z,99.70
2017-09-02T00:50:42.757Z,99.70
2017-09-02T00:50:47.023Z,99.70
2017-09-02T00:50:51.258Z,99.70
2017-09-02T00:50:55.518Z,99.70
2017-09-02T00:50:59.773Z,99.80
2017-09-02T00:51:04.027Z,99.80
2017-09-02T00:51:08.276Z,99.80
2017-09-02T00:51:12.542Z,99.80
2017-09-02T00:51:16.795Z,99.90
2017-09-02T00:51:21.043Z,99.90
2017-09-02T00:51:25.308Z,99.90
2017-09-02T00:51:29.581Z,99.90
2017-09-02T00:51:33.860Z,99.90
2017-09-02T00:51:38.136Z,99.90
2017-09-02T00:51:42.430Z,99.90
2017-09-02T00:51:46.662Z,99.90
2017-09-02T00:51:51.680Z,99.90
2017-09-02T00:51:55.932Z,99.90
2017-09-02T00:52:00.173Z,99.90
2017-09-02T00:52:04.448Z,99.90
2017-09-02T00:52:08.718Z,99.90
2017-09-02T00:52:12.984Z,99.90
2017-09-02T00:52:17.238Z,99.90
2017-09-02T00:52:21.486Z,99.90
2017-09-02T00:52:25.739Z,99.90
2017-09-02T00:52:30.005Z,99.90
2017-09-02T00:52:34.272Z,99.90
2017-09-02T00:52:38.526Z,99.90
2017-09-02T00:52:42.781Z,99.90
2017-09-02T00:52:47.040Z,99.90
2017-09-02T00:52:51.289Z,99.90
2017-09-02T00:52:55.554Z,99.90
2017-09-02T00:52:59.822Z,99.90
2017-09-02T00:53:04.089Z,99.90
2017-09-02T00:53:08.332Z,99.90
2017-09-02T00:53:12.623Z,99.90
2017-09-02T00:53:16.889Z,99.90
2017-09-02T00:53:21.156Z,99.90
2017-09-02T00:53:25.402Z,99.90
2017-09-02T00:53:29.674Z,99.90
2017-09-02T00:53:33.922Z,99.90
2017-09-02T00:53:38.186Z,99.90
2017-09-02T00:53:42.440Z,99.90
2017-09-02T00:53:46.704Z,99.90
2017-09-02T00:53:51.728Z,99.90
2017-09-02T00:53:55.978Z,99.90
2017-09-02T00:54:00.228Z,99.90
2017-09-02T00:54:04.498Z,99.90
2017-09-02T00:54:08.769Z,99.90
2017-09-02T00:54:13.022Z,99.90
2017-09-02T00:54:17.273Z,99.90
2017-09-02T00:54:21.539Z,99.90
2017-09-02T00:54:25.782Z,99.90
2017-09-02T00:54:30.043Z,99.90
2017-09-02T00:54:34.288Z,99.90
2017-09-02T00:54:38.538Z,99.90
2017-09-02T00:54:42.790Z,99.90
2017-09-02T00:54:47.030Z,99.90
2017-09-02T00:54:51.296Z,99.90
2017-09-02T00:54:55.544Z,99.90
2017-09-02T00:54:59.802Z,99.90
2017-09-02T00:55:04.051Z,99.90
2017-09-02T00:55:08.298Z,99.90
2017-09-02T00:55:12.568Z,99.90
2017-09-02T00:55:16.819Z,99.90